Time;durP1;ratioP1;P1;durP2;ratioP2;P2;SDS_P1;SDS_P2;PMS_P1;PMS_P2;Temp;Humidity;BMP_temperature;BMP_pressure;BME280_temperature;BME280_humidity;BME280_pressure;Samples;Min_cycle;Max_cycle;Signal;HPM_P1;HPM_P2
2021/05/09 00:00:28;;;;;;;5.30;2.90;;;9.00;99.90;;;9.81;100.00;97577.13;5116522;27;20485;-80
2021/05/09 00:02:56;;;;;;;5.93;3.10;;;8.80;99.90;;;9.71;100.00;97576.69;5123392;27;20464;-80
2021/05/09 00:05:24;;;;;;;3.90;3.00;;;8.70;99.90;;;9.68;100.00;97574.44;5119488;27;20808;-80
2021/05/09 00:07:51;;;;;;;4.87;2.93;;;8.70;99.90;;;9.70;100.00;97572.44;5118078;27;20815;-80
2021/05/09 00:10:20;;;;;;;6.23;2.83;;;8.70;99.90;;;9.61;100.00;97569.97;5119378;27;20453;-80
2021/05/09 00:12:48;;;;;;;4.00;2.80;;;8.60;99.90;;;9.71;100.00;97568.84;5128640;27;20438;-80
2021/05/09 00:15:23;;;;;;;6.03;2.50;;;8.70;99.90;;;9.63;100.00;97569.00;5121512;27;20458;-80
2021/05/09 00:17:51;;;;;;;5.70;2.80;;;8.60;99.90;;;9.51;100.00;97564.31;5123661;27;20457;-80
2021/05/09 00:20:23;;;;;;;2.30;2.00;;;8.50;99.90;;;9.59;100.00;97566.78;5119390;27;20493;-80
2021/05/09 00:22:51;;;;;;;3.37;2.70;;;8.60;99.90;;;9.64;100.00;97557.56;5121022;27;20884;-80
2021/05/09 00:25:19;;;;;;;3.50;2.20;;;8.60;99.90;;;9.57;100.00;97555.72;5122132;28;20834;-80
2021/05/09 00:27:47;;;;;;;5.80;2.80;;;8.60;99.90;;;9.37;100.00;97554.78;5120658;28;20457;-80
2021/05/09 00:30:18;;;;;;;3.63;2.60;;;8.40;99.90;;;9.30;100.00;97551.31;5123610;27;20477;-80
2021/05/09 00:32:47;;;;;;;4.63;2.90;;;8.20;99.90;;;9.34;100.00;97552.56;5124303;28;20468;-80
2021/05/09 00:35:14;;;;;;;9.63;2.70;;;8.40;99.90;;;9.13;100.00;97547.38;5123906;28;20461;-80
2021/05/09 00:37:42;;;;;;;3.20;2.50;;;8.10;99.90;;;9.08;100.00;97550.59;5124637;27;20457;-80
2021/05/09 00:40:11;;;;;;;5.37;2.60;;;8.10;99.90;;;9.09;100.00;97554.00;5126293;27;20511;-80
2021/05/09 00:42:39;;;;;;;2.30;2.03;;;8.10;99.90;;;9.07;100.00;97542.94;5124920;27;20461;-80
2021/05/09 00:45:08;;;;;;;3.47;2.47;;;8.10;99.90;;;9.13;100.00;97539.56;5126676;28;20480;-80
2021/05/09 00:47:37;;;;;;;2.53;2.20;;;8.20;99.90;;;9.12;100.00;97548.41;5127092;27;20449;-80
2021/05/09 00:50:06;;;;;;;4.87;2.90;;;8.10;99.90;;;8.91;100.00;97540.63;5121201;28;20462;-80
2021/05/09 00:52:38;;;;;;;3.40;2.30;;;7.90;99.90;;;9.01;100.00;97539.31;5128216;27;20460;-80
2021/05/09 00:55:09;;;;;;;8.40;2.80;;;8.10;99.90;;;9.08;100.00;97537.56;5118424;28;20724;-80
2021/05/09 00:57:38;;;;;;;6.30;2.43;;;8.10;99.90;;;9.18;100.00;97539.00;5126263;27;20449;-80
2021/05/09 01:00:09;;;;;;;7.10;2.70;;;8.20;99.90;;;9.00;100.00;97534.25;5123248;28;20550;-80
2021/05/09 01:02:42;;;;;;;3.07;2.20;;;8.00;99.90;;;9.01;100.00;97528.88;5120963;27;20465;-80
2021/05/09 01:05:13;;;;;;;3.03;2.43;;;8.00;99.90;;;9.02;100.00;97527.06;5122566;27;20453;-80
2021/05/09 01:07:41;;;;;;;2.73;2.10;;;8.00;99.90;;;9.07;100.00;97515.06;5126880;27;20849;-80
2021/05/09 01:10:13;;;;;;;3.20;2.17;;;8.10;99.90;;;8.95;100.00;97513.19;5127392;27;20464;-80
2021/05/09 01:12:42;;;;;;;2.23;2.00;;;8.00;99.90;;;8.98;100.00;97520.63;5128634;27;20461;-80
2021/05/09 01:15:12;;;;;;;5.00;2.50;;;8.00;99.90;;;8.87;100.00;97516.72;5124811;27;20458;-80
2021/05/09 01:17:41;;;;;;;2.73;2.23;;;7.90;99.90;;;8.69;100.00;97533.81;5128132;27;20460;-80
2021/05/09 01:20:34;;;;;;;5.60;2.93;;;7.70;99.90;;;8.78;100.00;97550.94;5130500;27;20977;-80
2021/05/09 01:23:03;;;;;;;4.00;2.30;;;7.70;99.90;;;8.95;100.00;97544.47;5123121;27;20568;-80
2021/05/09 01:25:31;;;;;;;3.13;2.60;;;8.00;99.90;;;8.94;100.00;97530.63;5120455;27;20458;-80
2021/05/09 01:27:59;;;;;;;3.93;2.63;;;8.00;99.90;;;8.87;100.00;97528.97;5127481;27;20449;-80
2021/05/09 01:30:27;;;;;;;4.40;2.50;;;7.90;99.90;;;8.97;100.00;97529.44;5128863;27;20457;-80
2021/05/09 01:32:55;;;;;;;5.30;2.97;;;8.00;99.90;;;8.94;100.00;97525.41;5125281;27;20460;-80
2021/05/09 01:35:23;;;;;;;6.30;2.90;;;8.00;99.90;;;8.94;100.00;97524.59;5125972;27;20469;-80
2021/05/09 01:37:51;;;;;;;4.10;2.97;;;7.90;99.90;;;8.86;100.00;97524.72;5126828;27;20464;-80
2021/05/09 01:40:19;;;;;;;2.87;2.17;;;7.80;99.90;;;8.95;100.00;97521.81;5130184;27;20497;-81
2021/05/09 01:42:47;;;;;;;3.90;2.73;;;7.90;99.90;;;8.89;100.00;97527.75;5131816;27;20461;-81
2021/05/09 01:45:15;;;;;;;3.43;2.60;;;7.90;99.90;;;8.75;100.00;97531.25;5122557;27;20487;-80
2021/05/09 01:47:43;;;;;;;6.97;2.57;;;7.80;99.90;;;8.72;100.00;97526.44;5119055;27;20522;-80
2021/05/09 01:50:15;;;;;;;4.10;2.30;;;7.70;99.90;;;8.86;100.00;97522.94;5125937;27;20458;-80
2021/05/09 01:52:43;;;;;;;4.80;2.63;;;7.90;99.90;;;8.73;100.00;97527.22;5124352;27;20491;-80
2021/05/09 01:55:15;;;;;;;7.17;2.40;;;7.80;99.90;;;8.73;100.00;97522.84;5126604;27;20885;-80
2021/05/09 01:57:42;;;;;;;3.10;2.70;;;7.70;99.90;;;8.61;100.00;97524.31;5120705;27;20450;-80
2021/05/09 02:00:14;;;;;;;5.00;2.47;;;7.60;99.90;;;8.50;100.00;97512.59;5124550;27;20488;-80
2021/05/09 02:02:41;;;;;;;3.27;2.33;;;7.50;99.90;;;8.53;100.00;97509.66;5128469;27;20457;-80
2021/05/09 02:05:11;;;;;;;4.23;2.60;;;7.50;99.90;;;8.36;100.00;97516.09;5121184;27;20967;-80
2021/05/09 02:07:38;;;;;;;5.87;2.80;;;7.40;99.90;;;8.29;100.00;97509.22;5126465;27;20453;-80
2021/05/09 02:10:08;;;;;;;3.17;2.50;;;7.30;99.90;;;8.48;100.00;97508.56;5122883;27;20878;-80
2021/05/09 02:12:37;;;;;;;9.00;2.63;;;7.50;99.90;;;8.47;100.00;97512.16;5122643;27;20951;-80
2021/05/09 02:15:07;;;;;;;2.50;1.87;;;7.50;99.90;;;8.41;100.00;97499.88;5126192;27;20458;-80
2021/05/09 02:17:35;;;;;;;5.00;2.60;;;7.40;99.90;;;8.40;100.00;97501.69;5124592;27;20858;-80
2021/05/09 02:20:07;;;;;;;2.33;2.13;;;7.40;99.90;;;8.39;100.00;97499.28;5119989;27;20459;-80
2021/05/09 02:22:35;;;;;;;3.53;2.33;;;7.40;99.90;;;8.36;100.00;97497.88;5126980;27;20460;-80
2021/05/09 02:25:04;;;;;;;3.60;2.37;;;7.40;99.90;;;8.38;100.00;97495.88;5124529;27;20465;-80
2021/05/09 02:27:31;;;;;;;3.37;2.53;;;7.40;99.90;;;8.38;100.00;97500.25;5128638;27;20464;-80
2021/05/09 02:30:00;;;;;;;2.90;2.20;;;7.40;99.90;;;8.17;100.00;97495.03;5125837;27;20874;-80
2021/05/09 02:32:27;;;;;;;3.53;2.30;;;7.20;99.90;;;8.15;100.00;97497.00;5128150;27;20464;-80
2021/05/09 02:34:56;;;;;;;4.50;2.40;;;7.20;99.90;;;8.25;100.00;97494.91;5126133;27;20485;-80
2021/05/09 02:37:24;;;;;;;2.73;2.20;;;7.30;99.90;;;8.32;100.00;97488.00;5125709;27;20449;-80
2021/05/09 02:39:51;;;;;;;2.00;1.80;;;7.40;99.90;;;8.36;100.00;97482.25;5127159;27;20465;-80
2021/05/09 02:42:19;;;;;;;3.63;2.30;;;7.40;99.90;;;8.42;100.00;97481.47;5128967;27;20522;-80
2021/05/09 02:44:47;;;;;;;4.60;2.47;;;7.50;99.90;;;8.29;100.00;97478.75;5124208;27;20920;-80
2021/05/09 02:47:28;;;;;;;5.83;2.43;;;7.30;99.90;;;8.31;100.00;97476.75;5124864;27;20461;-80
2021/05/09 02:49:58;;;;;;;4.30;2.23;;;7.30;99.90;;;8.26;100.00;97473.88;5128016;27;20838;-80
2021/05/09 02:52:26;;;;;;;4.23;2.17;;;7.30;99.90;;;8.26;100.00;97468.66;5124957;27;20937;-80
2021/05/09 02:54:55;;;;;;;3.17;2.47;;;7.30;99.90;;;8.26;100.00;97473.88;5119738;27;21007;-80
2021/05/09 02:57:23;;;;;;;9.00;2.40;;;7.30;99.90;;;8.10;100.00;97474.13;5124308;27;20510;-80
2021/05/09 02:59:50;;;;;;;2.57;2.13;;;7.10;99.90;;;8.05;100.00;97479.09;5128908;27;20465;-80
2021/05/09 03:02:19;;;;;;;3.00;2.00;;;7.10;99.90;;;8.08;100.00;97476.94;5126594;27;20546;-80
2021/05/09 03:04:47;;;;;;;2.90;2.13;;;7.20;99.90;;;8.20;100.00;97474.63;5124526;27;20457;-80
2021/05/09 03:07:14;;;;;;;2.60;2.13;;;7.30;99.90;;;8.25;100.00;97467.06;5127757;27;20464;-80
2021/05/09 03:09:42;;;;;;;4.10;2.40;;;7.40;99.90;;;8.29;100.00;97468.34;5128245;27;20861;-80
2021/05/09 03:12:10;;;;;;;2.90;2.13;;;7.40;99.90;;;8.26;100.00;97467.88;5125781;27;20453;-80
2021/05/09 03:14:37;;;;;;;5.97;2.40;;;7.30;99.90;;;8.14;100.00;97462.34;5127329;27;20461;-80
2021/05/09 03:17:05;;;;;;;3.50;2.23;;;7.20;99.90;;;7.99;100.00;97462.41;5125843;27;20461;-80
2021/05/09 03:19:33;;;;;;;3.70;2.03;;;7.00;99.90;;;7.90;100.00;97463.53;5125760;27;20458;-80
2021/05/09 03:22:01;;;;;;;2.80;1.97;;;6.90;99.90;;;7.95;100.00;97470.75;5123226;27;20508;-79
2021/05/09 03:24:28;;;;;;;4.00;2.20;;;7.00;99.90;;;7.89;100.00;97468.91;5125752;27;20457;-80
2021/05/09 03:26:56;;;;;;;2.40;2.20;;;6.90;99.90;;;7.83;100.00;97467.03;5125181;27;20449;-80
2021/05/09 03:29:23;;;;;;;4.33;2.07;;;6.90;99.90;;;7.75;100.00;97467.13;5126217;27;20510;-80
2021/05/09 03:31:51;;;;;;;2.80;2.50;;;6.80;99.90;;;7.76;100.00;97472.19;5122656;27;20751;-80
2021/05/09 03:34:19;;;;;;;2.90;2.10;;;6.80;99.90;;;7.80;100.00;97472.63;5120373;27;20465;-80
2021/05/09 03:36:47;;;;;;;2.30;1.80;;;6.80;99.90;;;7.87;100.00;97473.50;5126609;27;20529;-80
2021/05/09 03:39:15;;;;;;;3.53;2.20;;;6.90;99.90;;;7.77;100.00;97468.59;5128095;27;20469;-80
2021/05/09 03:41:42;;;;;;;2.37;2.07;;;6.80;99.90;;;7.83;100.00;97465.25;5124789;27;20492;-80
2021/05/09 03:44:10;;;;;;;3.07;2.17;;;6.90;99.90;;;7.96;100.00;97467.16;5119330;27;20481;-80
2021/05/09 03:46:38;;;;;;;4.13;2.33;;;7.10;99.90;;;8.04;100.00;97469.66;5124105;27;20458;-80
2021/05/09 03:49:05;;;;;;;4.33;2.00;;;7.20;99.90;;;8.13;100.00;97463.34;5120857;27;20525;-80
2021/05/09 03:51:33;;;;;;;2.03;1.90;;;7.20;99.90;;;8.12;100.00;97468.75;5125181;27;20468;-80
2021/05/09 03:54:01;;;;;;;3.37;2.50;;;7.30;99.90;;;7.88;100.00;97475.13;5125671;27;20457;-80
2021/05/09 03:56:28;;;;;;;3.63;2.13;;;6.90;99.90;;;7.86;100.00;97474.47;5123340;27;20502;-80
2021/05/09 03:58:56;;;;;;;2.70;2.27;;;6.90;99.90;;;7.77;100.00;97472.97;5122586;27;20854;-80
2021/05/09 04:01:23;;;;;;;3.47;1.97;;;6.80;99.90;;;7.78;100.00;97467.56;5122659;27;20542;-80
2021/05/09 04:03:51;;;;;;;4.60;2.50;;;6.80;99.90;;;7.77;100.00;97460.78;5127186;27;20541;-81
2021/05/09 04:06:18;;;;;;;2.10;1.90;;;6.80;99.90;;;7.85;100.00;97459.84;5122896;27;20459;-80
2021/05/09 04:08:46;;;;;;;3.30;2.50;;;6.90;99.90;;;7.83;100.00;97452.22;5123990;27;21011;-80
2021/05/09 04:11:14;;;;;;;2.47;2.27;;;6.90;99.90;;;7.85;100.00;97452.03;5128012;27;20483;-80
2021/05/09 04:13:46;;;;;;;3.03;2.20;;;6.80;99.90;;;7.81;100.00;97459.41;5119363;27;20465;-80
2021/05/09 04:16:14;;;;;;;7.40;2.63;;;6.90;99.90;;;7.75;100.00;97448.94;5124873;27;20488;-80
2021/05/09 04:18:41;;;;;;;3.70;1.77;;;6.80;99.90;;;7.83;100.00;97451.41;5125613;27;20470;-80
2021/05/09 04:21:09;;;;;;;2.50;2.30;;;6.80;99.90;;;7.72;100.00;97454.50;5121389;27;20492;-80
2021/05/09 04:23:36;;;;;;;3.47;2.40;;;6.70;99.90;;;7.55;100.00;97457.31;5122037;27;20467;-80
2021/05/09 04:26:04;;;;;;;3.13;2.50;;;6.50;99.90;;;7.68;100.00;97456.66;5123890;27;20529;-80
2021/05/09 04:28:32;;;;;;;2.03;1.87;;;6.70;99.90;;;7.71;100.00;97455.47;5119810;27;20461;-80
2021/05/09 04:31:00;;;;;;;4.00;2.10;;;6.70;99.90;;;7.67;100.00;97457.63;5125499;27;20449;-80
2021/05/09 04:33:29;;;;;;;3.83;2.50;;;6.70;99.90;;;7.59;100.00;97455.16;5118159;27;20468;-80
2021/05/09 04:35:56;;;;;;;2.70;2.00;;;6.60;99.90;;;7.68;100.00;97448.03;5126376;27;20929;-80
2021/05/09 04:38:24;;;;;;;4.20;2.10;;;6.70;99.90;;;7.72;100.00;97450.09;5120347;28;20491;-80
2021/05/09 04:40:51;;;;;;;13.47;2.77;;;6.80;99.90;;;7.80;100.00;97451.78;5115734;28;20492;-80
2021/05/09 04:43:21;;;;;;;2.10;1.90;;;6.80;99.90;;;7.79;100.00;97453.59;5124229;27;20457;-80
2021/05/09 04:45:52;;;;;;;2.70;1.93;;;6.80;99.90;;;7.64;100.00;97462.41;5126047;27;20480;-80
2021/05/09 04:48:20;;;;;;;3.83;2.63;;;6.60;99.90;;;7.60;100.00;97456.78;5122987;27;20480;-80
2021/05/09 04:50:48;;;;;;;2.23;2.00;;;6.60;99.90;;;7.69;100.00;97457.47;5126645;27;20458;-81
2021/05/09 04:53:27;;;;;;;3.30;2.60;;;6.80;99.90;;;7.74;100.00;97457.75;5131636;27;20521;-80
2021/05/09 04:55:57;;;;;;;7.53;2.40;;;6.80;99.90;;;7.69;100.00;97455.69;5123125;27;20456;-81
2021/05/09 04:58:25;;;;;;;4.33;2.50;;;6.80;99.90;;;7.73;100.00;97453.50;5130676;27;20445;-80
2021/05/09 05:00:55;;;;;;;4.13;2.20;;;6.80;99.90;;;7.86;100.00;97451.03;5124192;27;20853;-80
2021/05/09 05:03:23;;;;;;;4.30;2.40;;;6.90;99.90;;;7.88;100.00;97455.06;5132828;27;20438;-80
2021/05/09 05:05:51;;;;;;;4.10;2.73;;;7.00;99.90;;;7.89;100.00;97459.28;5127736;27;20493;-80
2021/05/09 05:08:18;;;;;;;3.50;2.00;;;6.90;99.90;;;7.96;100.00;97457.56;5132104;27;20468;-80
2021/05/09 05:10:46;;;;;;;3.60;2.70;;;7.10;99.90;;;7.89;100.00;97455.88;5123386;27;20472;-80
2021/05/09 05:13:19;;;;;;;3.37;2.77;;;6.90;99.90;;;7.94;100.00;97458.75;5124996;27;20458;-80
2021/05/09 05:15:52;;;;;;;4.47;2.53;;;7.00;99.90;;;8.00;100.00;97452.78;5127824;27;20825;-80
2021/05/09 05:18:22;;;;;;;3.97;2.47;;;7.10;99.90;;;8.07;100.00;97453.66;5124011;27;20523;-80
2021/05/09 05:20:51;;;;;;;4.07;2.43;;;7.10;99.90;;;8.00;100.00;97453.59;5130061;27;20537;-80
2021/05/09 05:23:19;;;;;;;2.60;2.37;;;7.10;99.90;;;8.05;100.00;97455.66;5123441;27;20924;-80
2021/05/09 05:25:46;;;;;;;2.27;2.03;;;7.10;99.90;;;8.13;100.00;97452.91;5126416;27;20465;-80
2021/05/09 05:28:14;;;;;;;3.40;2.30;;;7.20;99.90;;;8.27;100.00;97453.84;5126045;27;20835;-80
2021/05/09 05:30:41;;;;;;;5.00;1.87;;;7.30;99.90;;;8.37;100.00;97456.97;5125660;27;20457;-80
2021/05/09 05:33:22;;;;;;;8.30;2.20;;;7.50;99.90;;;8.42;100.00;97452.81;5121907;27;21008;-80
2021/05/09 05:35:51;;;;;;;5.20;2.33;;;7.60;99.90;;;8.47;100.00;97452.25;5127929;27;20457;-80
2021/05/09 05:38:19;;;;;;;3.70;2.10;;;7.80;99.90;;;8.52;100.00;97453.31;5118323;27;20462;-80
2021/05/09 05:40:51;;;;;;;3.50;2.50;;;7.80;99.90;;;8.60;100.00;97454.97;5124123;27;20667;-80
2021/05/09 05:43:18;;;;;;;2.60;2.00;;;7.80;99.90;;;8.65;100.00;97451.78;5119966;27;20506;-80
2021/05/09 05:45:46;;;;;;;3.43;1.80;;;7.90;99.90;;;8.67;100.00;97450.63;5123465;27;21008;-80
2021/05/09 05:48:14;;;;;;;1.80;1.63;;;7.80;99.90;;;8.73;100.00;97454.25;5128676;27;20454;-80
2021/05/09 05:50:41;;;;;;;2.83;1.80;;;7.90;99.90;;;8.81;100.00;97447.09;5123496;27;20781;-80
2021/05/09 05:53:10;;;;;;;2.03;1.70;;;7.90;99.90;;;8.81;100.00;97451.50;5128197;27;20464;-80
2021/05/09 05:55:37;;;;;;;1.90;1.63;;;7.90;99.90;;;8.91;100.00;97454.59;5127369;27;20452;-80
2021/05/09 05:58:06;;;;;;;2.57;2.10;;;8.00;99.90;;;8.94;100.00;97446.38;5124143;27;20971;-80
2021/05/09 06:00:33;;;;;;;4.10;1.90;;;8.00;99.90;;;9.02;100.00;97441.03;5124296;27;21104;-80
2021/05/09 06:03:01;;;;;;;3.90;2.23;;;8.10;99.90;;;9.07;100.00;97444.66;5126752;27;20454;-80
2021/05/09 06:05:28;;;;;;;2.47;2.20;;;8.20;99.90;;;9.16;100.00;97444.50;5124157;27;20454;-80
2021/05/09 06:07:56;;;;;;;3.20;1.90;;;8.30;99.90;;;9.20;100.00;97436.06;5130746;27;20445;-81
2021/05/09 06:10:24;;;;;;;5.97;2.50;;;8.40;99.90;;;9.30;100.00;97436.53;5125012;27;20945;-80
2021/05/09 06:12:54;;;;;;;3.90;2.70;;;8.50;99.90;;;9.36;100.00;97425.34;5124237;27;20465;-79
2021/05/09 06:15:23;;;;;;;41.57;20.80;;;8.50;99.90;;;9.44;100.00;97427.75;5124948;27;20457;-80
2021/05/09 06:17:50;;;;;;;6.87;4.07;;;8.60;99.90;;;9.51;100.00;97418.16;5126277;27;20454;-80
2021/05/09 06:20:19;;;;;;;4.53;2.80;;;8.70;99.90;;;9.60;100.00;97419.59;5124402;27;21067;-80
2021/05/09 06:22:46;;;;;;;3.10;2.80;;;8.80;99.90;;;9.68;100.00;97423.03;5124831;27;20489;-80
2021/05/09 06:25:15;;;;;;;3.47;2.53;;;8.90;99.90;;;9.74;100.00;97415.22;5119502;27;20493;-79
2021/05/09 06:27:43;;;;;;;28.83;13.80;;;8.90;99.90;;;9.82;100.00;97411.63;5123161;27;20550;-79
2021/05/09 06:30:12;;;;;;;26.83;10.00;;;9.00;99.90;;;9.87;100.00;97417.06;5128946;27;20861;-80
2021/05/09 06:32:40;;;;;;;6.63;4.50;;;9.00;99.90;;;9.94;100.00;97410.03;5128545;27;20437;-80
2021/05/09 06:35:08;;;;;;;3.07;2.77;;;9.10;99.90;;;10.01;100.00;97403.00;5129979;27;20596;-80
2021/05/09 06:37:36;;;;;;;3.40;2.47;;;9.20;99.90;;;10.09;100.00;97405.44;5130750;27;20450;-80
2021/05/09 06:40:06;;;;;;;2.27;2.07;;;9.30;99.90;;;10.15;100.00;97402.06;5130098;27;20520;-80
2021/05/09 06:42:34;;;;;;;5.03;2.10;;;9.40;99.90;;;10.23;100.00;97401.88;5132630;27;20860;-80
2021/05/09 06:45:06;;;;;;;3.33;2.30;;;9.50;99.90;;;10.30;100.00;97401.88;5116990;27;20473;-80
2021/05/09 06:47:38;;;;;;;2.57;2.00;;;9.50;99.90;;;10.36;100.00;97394.03;5129058;27;20466;-80
2021/05/09 06:50:08;;;;;;;3.67;2.90;;;9.60;99.90;;;10.43;100.00;97387.00;5119331;27;20442;-80
2021/05/09 06:52:35;;;;;;;3.27;2.37;;;9.70;99.90;;;10.51;100.00;97386.78;5122110;27;20450;-79
2021/05/09 06:55:05;;;;;;;2.83;2.57;;;9.80;99.90;;;10.58;100.00;97377.13;5122790;27;20832;-80
2021/05/09 06:57:32;;;;;;;4.90;2.77;;;9.90;99.90;;;10.68;100.00;97381.13;5123908;27;20442;-80
2021/05/09 07:00:00;;;;;;;5.40;2.60;;;10.00;99.90;;;10.75;100.00;97368.84;5130128;27;20442;-80
2021/05/09 07:02:28;;;;;;;2.27;2.03;;;10.10;99.90;;;10.83;100.00;97368.63;5119916;27;20486;-80
2021/05/09 07:04:57;;;;;;;3.03;2.40;;;10.20;99.90;;;10.92;100.00;97372.63;5127490;27;20791;-80
2021/05/09 07:07:24;;;;;;;2.70;2.13;;;10.30;99.90;;;11.00;100.00;97364.56;5126420;27;20498;-80
2021/05/09 07:09:52;;;;;;;5.40;2.47;;;10.40;99.90;;;11.08;100.00;97367.75;5126365;27;20484;-80
2021/05/09 07:12:19;;;;;;;2.90;1.97;;;10.50;99.90;;;11.20;100.00;97370.53;5122423;27;20473;-80
2021/05/09 07:14:48;;;;;;;83.87;40.47;;;10.60;99.90;;;11.32;100.00;97363.63;5120074;27;20466;-80
2021/05/09 07:17:16;;;;;;;4.57;3.33;;;10.80;99.90;;;11.46;100.00;97352.06;5124122;27;20819;-80
2021/05/09 07:19:46;;;;;;;2.53;1.90;;;11.00;99.90;;;11.56;100.00;97341.13;5118925;27;20451;-80
2021/05/09 07:22:20;;;;;;;2.70;2.27;;;11.00;99.90;;;11.72;100.00;97348.53;5123807;27;20934;-80
2021/05/09 07:24:48;;;;;;;6.23;2.00;;;11.30;99.90;;;11.92;100.00;97341.34;5127251;27;20456;-80
2021/05/09 07:27:16;;;;;;;2.27;1.87;;;11.40;99.90;;;12.07;100.00;97339.22;5129081;27;20445;-80
2021/05/09 07:29:43;;;;;;;4.93;2.30;;;11.60;99.90;;;12.33;100.00;97338.19;5125285;27;20838;-80
2021/05/09 07:32:11;;;;;;;4.20;2.53;;;11.90;99.90;;;12.56;100.00;97327.88;5123329;27;20429;-80
2021/05/09 07:34:38;;;;;;;3.53;2.37;;;12.10;99.90;;;12.95;100.00;97320.59;5125140;27;20511;-80
2021/05/09 07:37:07;;;;;;;4.30;2.13;;;12.60;99.90;;;13.13;100.00;97325.06;5117497;27;20457;-80
2021/05/09 07:39:34;;;;;;;8.13;1.90;;;12.70;99.90;;;13.38;100.00;97316.06;5120022;27;20496;-81
2021/05/09 07:42:02;;;;;;;8.80;5.07;;;13.00;99.90;;;13.75;100.00;97322.00;5125067;27;20542;-82
2021/05/09 07:44:30;;;;;;;2.37;2.17;;;13.40;99.90;;;14.09;100.00;97317.84;5122184;27;20485;-81
2021/05/09 07:46:58;;;;;;;5.47;2.00;;;13.60;99.90;;;14.37;100.00;97315.34;5117673;27;20462;-81
2021/05/09 07:49:25;;;;;;;3.40;2.20;;;14.10;99.90;;;14.66;100.00;97318.91;5120795;27;20454;-81
2021/05/09 07:51:53;;;;;;;3.60;2.10;;;14.20;99.90;;;14.80;100.00;97314.19;5121667;27;20461;-80
2021/05/09 07:54:21;;;;;;;2.77;1.63;;;14.40;99.90;;;15.03;100.00;97303.59;5122448;27;21188;-80
2021/05/09 07:56:49;;;;;;;2.73;1.70;;;14.60;99.90;;;15.33;100.00;97303.41;5123179;27;20457;-80
2021/05/09 07:59:17;;;;;;;6.40;1.87;;;14.90;99.90;;;15.40;100.00;97310.13;5123029;27;20458;-81
2021/05/09 08:01:45;;;;;;;3.80;2.07;;;15.00;99.90;;;15.55;100.00;97307.78;5126828;27;20496;-81
2021/05/09 08:04:12;;;;;;;2.80;2.10;;;15.10;99.90;;;15.72;100.00;97294.66;5119326;27;20933;-81
2021/05/09 08:06:43;;;;;;;18.10;2.23;;;15.30;99.90;;;15.76;100.00;97308.16;5119471;27;20456;-81
2021/05/09 08:09:10;;;;;;;2.43;1.90;;;15.40;99.90;;;15.96;100.00;97292.69;5122762;27;20834;-81
2021/05/09 08:11:39;;;;;;;1.53;1.37;;;15.50;99.90;;;16.11;100.00;97287.63;5122874;27;20514;-81
2021/05/09 08:14:06;;;;;;;3.40;1.70;;;15.60;99.90;;;16.23;100.00;97293.63;5123301;27;20465;-81
2021/05/09 08:16:34;;;;;;;2.17;1.83;;;15.70;99.90;;;16.31;100.00;97295.88;5120972;27;20457;-81
2021/05/09 08:19:02;;;;;;;5.20;2.13;;;15.80;99.90;;;16.38;100.00;97291.19;5117895;27;20462;-81
2021/05/09 08:21:29;;;;;;;2.80;1.87;;;15.90;99.90;;;16.43;100.00;97293.13;5123595;27;20898;-81
2021/05/09 08:23:56;;;;;;;5.37;2.33;;;16.00;99.90;;;16.56;100.00;97292.78;5122247;27;20868;-81
2021/05/09 08:26:24;;;;;;;3.93;1.97;;;16.20;99.90;;;16.68;100.00;97290.06;5121466;27;20462;-81
2021/05/09 08:28:52;;;;;;;2.40;1.80;;;16.20;99.90;;;16.79;100.00;97281.22;5116768;27;20457;-81
2021/05/09 08:31:20;;;;;;;3.50;1.70;;;16.40;99.90;;;16.97;100.00;97286.22;5115451;28;20503;-81
2021/05/09 08:33:48;;;;;;;3.47;1.60;;;16.40;99.90;;;17.10;100.00;97278.72;5118913;28;20469;-81
2021/05/09 08:36:16;;;;;;;1.80;1.50;;;16.60;99.90;;;17.17;100.00;97265.31;5122008;28;20465;-80
2021/05/09 08:38:43;;;;;;;6.53;1.73;;;16.70;99.90;;;17.26;100.00;97257.72;5120113;27;20461;-81
2021/05/09 08:41:11;;;;;;;2.80;1.87;;;16.80;99.90;;;17.26;100.00;97266.44;5124919;27;20430;-82
2021/05/09 08:43:39;;;;;;;4.97;1.97;;;16.80;99.90;;;17.42;99.29;97254.19;5121377;27;20488;-81
2021/05/09 08:46:07;;;;;;;2.50;1.83;;;17.00;99.90;;;17.44;100.00;97263.47;5121045;27;20457;-81
2021/05/09 08:48:37;;;;;;;2.50;1.60;;;17.10;99.90;;;17.67;95.53;97251.03;5120676;27;20457;-81
2021/05/09 08:51:06;;;;;;;2.00;1.70;;;17.20;99.90;;;17.88;95.32;97258.06;5121677;28;20859;-82
2021/05/09 08:53:34;;;;;;;4.40;1.80;;;17.40;99.90;;;17.91;93.19;97249.63;5124368;27;20465;-82
2021/05/09 08:56:02;;;;;;;3.10;1.57;;;17.40;99.90;;;18.06;92.82;97245.25;5121649;27;20463;-82
2021/05/09 08:58:30;;;;;;;3.30;2.17;;;17.60;99.90;;;18.08;93.00;97247.66;5122134;27;20462;-82
2021/05/09 09:00:58;;;;;;;5.40;2.33;;;17.60;99.90;;;18.13;92.47;97249.50;5124494;27;20465;-83
2021/05/09 09:03:27;;;;;;;7.30;4.10;;;17.70;99.90;;;18.22;90.30;97235.56;5126146;27;20588;-82
2021/05/09 09:05:55;;;;;;;2.73;1.70;;;17.80;99.90;;;18.42;89.06;97240.97;5123750;27;20496;-82
2021/05/09 09:08:22;;;;;;;2.87;2.00;;;18.00;99.90;;;18.56;88.70;97241.34;5121760;28;20468;-82
2021/05/09 09:10:52;;;;;;;10.03;2.13;;;18.10;99.90;;;18.62;88.37;97232.34;5115278;28;20522;-81
2021/05/09 09:13:23;;;;;;;3.83;1.60;;;18.10;99.90;;;18.77;87.15;97239.59;5116825;28;20453;-81
2021/05/09 09:15:55;;;;;;;4.83;1.70;;;18.30;99.90;;;18.76;87.20;97227.38;5119136;28;20492;-81
2021/05/09 09:18:43;;;;;;;3.57;2.07;;;18.30;99.90;;;18.82;87.21;97226.34;5122381;27;20528;-81
2021/05/09 09:21:26;;;;;;;8.47;2.30;;;18.30;99.90;;;18.89;87.16;97222.41;5114149;27;20478;-81
2021/05/09 09:23:56;;;;;;;3.80;1.80;;;18.50;99.90;;;19.02;86.62;97221.13;5122876;28;20497;-81
2021/05/09 09:26:36;;;;;;;6.23;3.70;;;18.60;99.90;;;19.08;86.38;97228.03;5124181;27;20797;-81
2021/05/09 09:29:28;;;;;;;2.03;1.73;;;18.60;99.90;;;19.26;85.58;97218.78;5122600;27;20457;-81
2021/05/09 09:31:58;;;;;;;3.40;2.20;;;18.80;99.90;;;19.32;86.12;97210.59;5123666;27;20660;-81
2021/05/09 09:34:39;;;;;;;4.17;1.97;;;18.90;99.90;;;19.42;86.60;97205.31;5124921;27;20514;-81
2021/05/09 09:37:08;;;;;;;2.80;2.10;;;19.00;99.90;;;19.42;86.13;97200.03;5123783;27;20460;-80
2021/05/09 09:39:50;;;;;;;3.90;2.17;;;19.00;99.90;;;19.53;83.96;97191.00;5123067;27;20689;-81
2021/05/09 09:42:37;;;;;;;12.63;2.30;;;19.20;99.90;;;19.69;82.09;97189.13;5114578;27;20496;-81
2021/05/09 09:45:15;;;;;;;3.50;2.03;;;19.30;99.90;;;19.76;82.62;97187.00;5124802;27;20496;-82
2021/05/09 09:47:54;;;;;;;2.70;1.70;;;19.40;99.90;;;20.02;81.11;97177.19;5125418;27;20480;-81
2021/05/09 09:50:37;;;;;;;4.07;1.70;;;19.60;99.90;;;20.04;80.97;97173.19;5123822;27;20461;-81
2021/05/09 09:53:28;;;;;;;4.53;1.80;;;19.60;99.90;;;20.37;78.16;97177.13;5119963;27;20453;-81
2021/05/09 09:56:07;;;;;;;2.70;1.77;;;20.10;99.20;;;20.48;75.21;97165.38;5121422;27;20457;-81
2021/05/09 09:58:49;;;;;;;2.70;1.70;;;20.10;98.30;;;20.62;75.13;97164.81;5122603;27;20672;-80
2021/05/09 10:01:21;;;;;;;4.10;1.90;;;20.20;98.30;;;20.59;74.60;97166.13;5126548;27;20457;-80
2021/05/09 10:03:50;;;;;;;2.60;1.90;;;20.20;98.10;;;20.57;75.71;97166.41;5122278;27;20466;-81
2021/05/09 10:06:19;;;;;;;58.67;32.10;;;20.10;98.20;;;20.62;73.62;97170.13;5128200;27;20889;-82
2021/05/09 10:08:48;;;;;;;2.50;2.17;;;20.10;97.60;;;20.67;72.92;97152.28;5124906;27;20467;-81
2021/05/09 10:11:16;;;;;;;20.67;5.60;;;20.20;97.40;;;20.82;71.29;97146.09;5123656;27;20473;-81
2021/05/09 10:13:45;;;;;;;2.83;2.07;;;20.50;97.00;;;20.85;71.25;97149.00;5124087;27;20462;-81
2021/05/09 10:16:14;;;;;;;4.57;2.17;;;20.50;96.90;;;21.12;68.72;97148.59;5124127;27;20464;-81
2021/05/09 10:18:46;;;;;;;7.20;4.10;;;20.80;96.10;;;21.10;68.87;97142.78;5125857;27;20465;-81
2021/05/09 10:21:15;;;;;;;5.43;2.07;;;20.60;96.20;;;21.23;69.69;97144.00;5123522;27;22352;-81
2021/05/09 10:24:15;;;;;;;4.37;1.63;;;20.90;96.40;;;21.47;64.86;97147.53;5123577;27;20453;-82
2021/05/09 10:26:53;;;;;;;3.97;2.07;;;21.10;94.80;;;21.53;64.74;97141.91;5128020;27;20469;-80
2021/05/09 10:29:49;;;;;;;2.83;1.80;;;21.10;94.90;;;21.61;62.99;97123.75;5123729;27;20465;-80
2021/05/09 10:32:49;;;;;;;2.80;1.57;;;21.20;94.20;;;21.61;61.67;97132.53;5120908;27;20477;-80